Terminal Aerodrome Forecast
Issued by NWS

Home | Current Version | Previous Version | Text Only | Print | Product List | Glossary On
Versions: 1 2 3 4 5 6 7 8 9 10 11 12 13 14 15 16 17 18 19 20 21 22 23 24
270
FTAK31 PAFC 161123
TAFAVD
TAF
PAVD 161123Z 1612/1712 VRB03KT P6SM VCSH SCT025 OVC050
     FM161400 VRB03KT P6SM BKN060 OVC100
     FM170000 VRB04KT P6SM -SHRA BKN060
     FM170800 10002KT P6SM SCT100
     AMD LTD TO CLD VIS AND WIND=

USA.gov is the U.S. government's official web portal to all federal, state and local government web resources and services.